Time;durP1;ratioP1;P1;durP2;ratioP2;P2;SDS_P1;SDS_P2;PMS_P1;PMS_P2;Temp;Humidity;BMP_temperature;BMP_pressure;BME280_temperature;BME280_humidity;BME280_pressure;Samples;Min_cycle;Max_cycle;Signal;HPM_P1;HPM_P2
2022/01/31 00:00:00;;;;;;;7.03;1.45;;;;;;;;;;4991901;28;100129;-74
2022/01/31 00:02:28;;;;;;;9.77;1.55;;;;;;;;;;5005812;28;100056;-75
2022/01/31 00:04:55;;;;;;;9.85;1.33;;;;;;;;;;5017697;28;100377;-74
2022/01/31 00:07:22;;;;;;;3.83;0.90;;;;;;;;;;4995681;28;102900;-75
2022/01/31 00:09:49;;;;;;;8.52;1.08;;;;;;;;;;5024140;28;100025;-75
2022/01/31 00:12:19;;;;;;;7.55;1.60;;;;;;;;;;5030670;28;100190;-74
2022/01/31 00:14:49;;;;;;;7.13;1.40;;;;;;;;;;5011737;28;100424;-75
2022/01/31 00:17:16;;;;;;;6.65;1.25;;;;;;;;;;4997279;28;100580;-76
2022/01/31 00:19:43;;;;;;;9.60;1.92;;;;;;;;;;5012763;28;100089;-76
2022/01/31 00:22:12;;;;;;;9.05;1.60;;;;;;;;;;5012797;28;101958;-76
2022/01/31 00:24:39;;;;;;;4.68;1.48;;;;;;;;;;5007549;28;100251;-76
2022/01/31 00:27:07;;;;;;;8.63;1.60;;;;;;;;;;4993079;28;101194;-76
2022/01/31 00:29:34;;;;;;;8.35;1.33;;;;;;;;;;4992590;28;100296;-76
2022/01/31 00:32:01;;;;;;;7.60;1.38;;;;;;;;;;4995015;28;100034;-75
2022/01/31 00:34:28;;;;;;;4.22;1.17;;;;;;;;;;4979160;28;100145;-75
2022/01/31 00:36:55;;;;;;;7.45;1.15;;;;;;;;;;4994974;28;101841;-76
2022/01/31 00:39:22;;;;;;;7.90;1.60;;;;;;;;;;4980017;28;101562;-75
2022/01/31 00:41:48;;;;;;;6.85;1.83;;;;;;;;;;5015361;28;100207;-76
2022/01/31 00:44:27;;;;;;;8.18;1.63;;;;;;;;;;5015220;28;100156;-75
2022/01/31 00:46:59;;;;;;;6.35;1.50;;;;;;;;;;5017090;28;100612;-75
2022/01/31 00:51:58;;;;;;;4.60;1.20;;;;;;;;;;4983108;28;100084;-75
2022/01/31 00:54:25;;;;;;;5.53;1.67;;;;;;;;;;4964380;28;101684;-75
2022/01/31 00:56:52;;;;;;;8.82;1.35;;;;;;;;;;4978666;28;100741;-76
2022/01/31 00:59:19;;;;;;;9.70;1.83;;;;;;;;;;5012597;28;100263;-76
2022/01/31 01:01:46;;;;;;;5.60;1.27;;;;;;;;;;4995374;28;100202;-75
2022/01/31 01:04:12;;;;;;;5.70;1.08;;;;;;;;;;4962492;28;100311;-75
2022/01/31 01:06:40;;;;;;;8.02;1.35;;;;;;;;;;4979027;28;100574;-74
2022/01/31 01:09:07;;;;;;;8.75;1.85;;;;;;;;;;4978570;28;100161;-74
2022/01/31 01:11:34;;;;;;;6.28;1.60;;;;;;;;;;4995211;28;100116;-74
2022/01/31 01:14:01;;;;;;;13.35;1.95;;;;;;;;;;4995132;28;100207;-76
2022/01/31 01:16:28;;;;;;;10.32;1.50;;;;;;;;;;4995110;28;100717;-75
2022/01/31 01:19:00;;;;;;;6.22;1.15;;;;;;;;;;5027663;28;99994;-75
2022/01/31 01:21:26;;;;;;;3.97;0.88;;;;;;;;;;5015322;28;100346;-74
2022/01/31 01:23:53;;;;;;;4.72;1.02;;;;;;;;;;5014506;28;100805;-74
2022/01/31 01:26:20;;;;;;;6.57;1.20;;;;;;;;;;4997284;28;101151;-74
2022/01/31 01:28:48;;;;;;;5.93;1.05;;;;;;;;;;4979511;28;100123;-74
2022/01/31 01:31:15;;;;;;;9.75;0.90;;;;;;;;;;4991172;28;100116;-76
2022/01/31 01:33:42;;;;;;;10.55;1.95;;;;;;;;;;4995825;28;100219;-75
2022/01/31 01:36:09;;;;;;;6.85;1.30;;;;;;;;;;4995580;28;100651;-75
2022/01/31 01:38:36;;;;;;;4.43;0.93;;;;;;;;;;4978881;28;100071;-74
2022/01/31 01:41:05;;;;;;;6.93;1.35;;;;;;;;;;4963831;28;100166;-72
2022/01/31 01:43:32;;;;;;;9.88;1.65;;;;;;;;;;4995201;28;100160;-74
2022/01/31 01:45:59;;;;;;;7.10;1.70;;;;;;;;;;4979014;28;100768;-74
2022/01/31 01:48:30;;;;;;;8.55;1.42;;;;;;;;;;4964336;28;99995;-74
2022/01/31 01:50:58;;;;;;;6.80;1.10;;;;;;;;;;4979324;28;99974;-75
2022/01/31 01:53:25;;;;;;;8.68;1.27;;;;;;;;;;4994987;28;100803;-75
2022/01/31 01:55:53;;;;;;;2.92;1.17;;;;;;;;;;4995503;28;100549;-75
2022/01/31 01:58:24;;;;;;;4.68;1.10;;;;;;;;;;4997090;28;100107;-75
2022/01/31 02:01:02;;;;;;;8.25;1.02;;;;;;;;;;4957066;28;99924;-75
2022/01/31 02:04:01;;;;;;;10.23;1.33;;;;;;;;;;4949837;28;100321;-75
2022/01/31 02:06:40;;;;;;;4.70;1.05;;;;;;;;;;4982974;28;100638;-75
2022/01/31 02:09:07;;;;;;;5.32;1.10;;;;;;;;;;4972330;28;100180;-75
2022/01/31 02:11:34;;;;;;;6.65;1.55;;;;;;;;;;4973537;28;100048;-75
2022/01/31 02:14:02;;;;;;;5.93;1.10;;;;;;;;;;4939810;28;100156;-75
2022/01/31 02:16:58;;;;;;;5.93;1.33;;;;;;;;;;4959006;28;100738;-75
2022/01/31 02:19:31;;;;;;;7.32;1.33;;;;;;;;;;4958285;28;100041;-75
2022/01/31 02:22:18;;;;;;;6.82;1.40;;;;;;;;;;4971870;28;100037;-76
2022/01/31 02:24:57;;;;;;;5.00;1.02;;;;;;;;;;4957223;28;100510;-76
2022/01/31 02:27:50;;;;;;;6.82;1.25;;;;;;;;;;4966361;28;100644;-75
2022/01/31 02:30:17;;;;;;;7.13;1.63;;;;;;;;;;4990965;28;100168;-75
2022/01/31 02:32:46;;;;;;;10.00;1.42;;;;;;;;;;4975533;28;100083;-75
2022/01/31 02:35:13;;;;;;;4.53;1.17;;;;;;;;;;4946257;28;100573;-75
2022/01/31 02:37:42;;;;;;;4.20;1.50;;;;;;;;;;4971727;28;100707;-75
2022/01/31 02:40:38;;;;;;;5.35;1.15;;;;;;;;;;4962995;28;100321;-75
2022/01/31 02:43:05;;;;;;;9.57;1.30;;;;;;;;;;4971657;28;100149;-75
2022/01/31 02:45:32;;;;;;;7.90;1.27;;;;;;;;;;4958285;28;100709;-75
2022/01/31 02:48:02;;;;;;;7.13;1.20;;;;;;;;;;4955103;28;101632;-75
2022/01/31 02:50:31;;;;;;;5.22;1.10;;;;;;;;;;4971902;28;99979;-75
2022/01/31 02:53:22;;;;;;;4.97;0.98;;;;;;;;;;4971447;28;100109;-75
2022/01/31 02:55:49;;;;;;;6.85;1.13;;;;;;;;;;4972130;28;100830;-75
2022/01/31 02:58:19;;;;;;;9.00;1.48;;;;;;;;;;4939191;28;103085;-75
2022/01/31 03:00:48;;;;;;;6.75;1.27;;;;;;;;;;4959116;28;100131;-75
2022/01/31 03:03:19;;;;;;;5.25;1.40;;;;;;;;;;4975984;28;99909;-76
2022/01/31 03:05:46;;;;;;;5.53;1.48;;;;;;;;;;4990057;28;100230;-76
2022/01/31 03:08:14;;;;;;;9.02;1.45;;;;;;;;;;4958569;28;100939;-76
2022/01/31 03:10:42;;;;;;;5.75;1.63;;;;;;;;;;4941805;28;100165;-77
2022/01/31 03:13:10;;;;;;;9.23;1.25;;;;;;;;;;4991552;28;100061;-76
2022/01/31 03:15:43;;;;;;;5.45;1.45;;;;;;;;;;4990994;28;100240;-76
2022/01/31 03:18:10;;;;;;;6.10;1.30;;;;;;;;;;4974397;28;103494;-77
2022/01/31 03:20:39;;;;;;;9.18;1.52;;;;;;;;;;5010317;28;100129;-77
2022/01/31 03:23:07;;;;;;;6.97;1.40;;;;;;;;;;4994996;28;100042;-77
2022/01/31 03:25:34;;;;;;;6.50;1.40;;;;;;;;;;5010855;28;100164;-77
2022/01/31 03:28:00;;;;;;;12.38;1.88;;;;;;;;;;4961965;28;101526;-76
2022/01/31 03:30:27;;;;;;;5.85;1.30;;;;;;;;;;4991002;28;100183;-76
2022/01/31 03:32:55;;;;;;;7.50;1.50;;;;;;;;;;4974953;28;100160;-76
2022/01/31 03:35:23;;;;;;;5.05;1.17;;;;;;;;;;4974066;28;100248;-76
2022/01/31 03:37:50;;;;;;;10.63;1.73;;;;;;;;;;4987379;28;103515;-75
2022/01/31 03:40:22;;;;;;;12.48;1.92;;;;;;;;;;5010362;28;100078;-76
2022/01/31 03:42:50;;;;;;;7.65;1.63;;;;;;;;;;5010269;28;100213;-75
2022/01/31 03:45:19;;;;;;;13.23;1.95;;;;;;;;;;5009693;28;100205;-74
2022/01/31 03:47:50;;;;;;;6.28;1.25;;;;;;;;;;4994234;28;101133;-74
2022/01/31 03:50:18;;;;;;;6.57;1.30;;;;;;;;;;5010734;28;100104;-75
2022/01/31 03:52:48;;;;;;;11.82;2.03;;;;;;;;;;4994783;28;100126;-74
2022/01/31 03:55:15;;;;;;;7.63;1.88;;;;;;;;;;5010153;28;100303;-75
2022/01/31 03:57:49;;;;;;;11.95;1.80;;;;;;;;;;5010495;28;100616;-75
2022/01/31 04:00:26;;;;;;;5.30;1.70;;;;;;;;;;4964526;28;100157;-75
2022/01/31 04:02:52;;;;;;;7.25;2.20;;;;;;;;;;4985860;28;102236;-75
2022/01/31 04:05:21;;;;;;;6.28;1.42;;;;;;;;;;5012850;28;100748;-75
2022/01/31 04:07:48;;;;;;;9.15;1.70;;;;;;;;;;4997272;28;100550;-75
2022/01/31 04:10:15;;;;;;;9.10;1.65;;;;;;;;;;5014821;28;99977;-75
2022/01/31 04:12:42;;;;;;;18.88;2.10;;;;;;;;;;5014106;28;100043;-75
2022/01/31 04:15:08;;;;;;;6.45;1.77;;;;;;;;;;5014737;28;100175;-75
2022/01/31 04:17:37;;;;;;;9.38;1.73;;;;;;;;;;5013883;28;100768;-75
2022/01/31 04:20:06;;;;;;;13.90;2.28;;;;;;;;;;5014776;28;99999;-75
2022/01/31 04:22:41;;;;;;;10.52;1.95;;;;;;;;;;5013765;28;100331;-76
2022/01/31 04:25:17;;;;;;;7.33;2.37;;;;;;;;;;4997824;28;100160;-76
2022/01/31 04:27:46;;;;;;;8.77;2.38;;;;;;;;;;5013747;28;100646;-76
2022/01/31 04:30:13;;;;;;;7.60;1.60;;;;;;;;;;4995046;28;100072;-76
2022/01/31 04:32:40;;;;;;;7.05;1.77;;;;;;;;;;4995034;28;100030;-76
2022/01/31 04:35:07;;;;;;;11.68;1.85;;;;;;;;;;4993851;28;101415;-75
2022/01/31 04:37:34;;;;;;;9.90;1.85;;;;;;;;;;4994573;28;100712;-76
2022/01/31 04:40:01;;;;;;;11.45;2.30;;;;;;;;;;4993839;28;99976;-76
2022/01/31 04:42:28;;;;;;;7.38;1.95;;;;;;;;;;4977015;28;99921;-76
2022/01/31 04:45:01;;;;;;;8.93;2.13;;;;;;;;;;4981265;28;102266;-77
2022/01/31 04:47:28;;;;;;;7.22;1.58;;;;;;;;;;5014322;28;101076;-75
2022/01/31 04:49:54;;;;;;;7.95;1.60;;;;;;;;;;5014721;28;100208;-76
2022/01/31 04:52:21;;;;;;;11.10;2.45;;;;;;;;;;5017119;28;100795;-75
2022/01/31 04:54:48;;;;;;;9.73;2.03;;;;;;;;;;5013002;28;100166;-76
2022/01/31 04:57:16;;;;;;;6.30;2.22;;;;;;;;;;5013961;28;100566;-76
2022/01/31 04:59:44;;;;;;;8.50;1.95;;;;;;;;;;5008334;28;100131;-75
2022/01/31 05:02:10;;;;;;;5.15;1.33;;;;;;;;;;4994540;28;99945;-75
2022/01/31 05:04:38;;;;;;;8.23;2.20;;;;;;;;;;4992532;28;100220;-75
2022/01/31 05:07:04;;;;;;;8.68;2.05;;;;;;;;;;4992694;28;100638;-76
2022/01/31 05:09:31;;;;;;;9.13;1.65;;;;;;;;;;4994334;28;100077;-74
2022/01/31 05:11:58;;;;;;;9.05;1.98;;;;;;;;;;4992877;28;100111;-75
2022/01/31 05:14:25;;;;;;;11.40;1.90;;;;;;;;;;4982733;28;102852;-75
2022/01/31 05:16:52;;;;;;;10.30;1.90;;;;;;;;;;4993447;28;101071;-75
2022/01/31 05:19:19;;;;;;;12.07;2.15;;;;;;;;;;4994380;28;100055;-76
2022/01/31 05:21:46;;;;;;;9.75;2.17;;;;;;;;;;4993132;28;100243;-78
2022/01/31 05:24:12;;;;;;;8.30;2.20;;;;;;;;;;4993563;28;100225;-74
2022/01/31 05:26:39;;;;;;;12.82;2.17;;;;;;;;;;4993696;28;101762;-75
2022/01/31 05:29:06;;;;;;;9.10;1.88;;;;;;;;;;4994214;28;100127;-75
2022/01/31 05:31:33;;;;;;;9.10;2.17;;;;;;;;;;4992877;28;100102;-75
2022/01/31 05:34:00;;;;;;;8.05;1.50;;;;;;;;;;4992303;28;100312;-74
2022/01/31 05:36:26;;;;;;;7.57;1.65;;;;;;;;;;4993756;28;100589;-76
2022/01/31 05:38:54;;;;;;;9.23;2.42;;;;;;;;;;4991936;28;100048;-76
2022/01/31 05:41:21;;;;;;;10.20;1.73;;;;;;;;;;4994331;28;100025;-76
2022/01/31 05:43:48;;;;;;;9.68;2.08;;;;;;;;;;4991755;28;102623;-76
2022/01/31 05:46:15;;;;;;;9.40;2.28;;;;;;;;;;4992552;28;100661;-76
2022/01/31 05:48:42;;;;;;;9.18;2.08;;;;;;;;;;4992077;28;100206;-77
2022/01/31 05:51:16;;;;;;;7.70;2.03;;;;;;;;;;4992905;28;99849;-77
2022/01/31 05:53:43;;;;;;;12.65;2.75;;;;;;;;;;4993369;28;100382;-74
2022/01/31 05:56:11;;;;;;;9.40;2.17;;;;;;;;;;4959154;28;100635;-75
2022/01/31 05:58:38;;;;;;;10.60;2.45;;;;;;;;;;4993966;28;100313;-76
2022/01/31 06:01:06;;;;;;;10.13;2.42;;;;;;;;;;4994971;28;100125;-75
2022/01/31 06:03:34;;;;;;;12.93;2.75;;;;;;;;;;5012684;28;100224;-76
2022/01/31 06:06:01;;;;;;;10.63;2.10;;;;;;;;;;4978726;28;102299;-75
2022/01/31 06:08:28;;;;;;;10.63;2.45;;;;;;;;;;5013069;28;100157;-75
2022/01/31 06:10:55;;;;;;;10.45;2.63;;;;;;;;;;4995287;28;100116;-76
2022/01/31 06:13:29;;;;;;;12.05;2.47;;;;;;;;;;5027044;28;100930;-75
2022/01/31 06:15:57;;;;;;;14.15;3.70;;;;;;;;;;5032671;28;100586;-76
2022/01/31 06:18:24;;;;;;;11.60;2.42;;;;;;;;;;5032348;28;100071;-76
2022/01/31 06:20:51;;;;;;;11.57;2.28;;;;;;;;;;5032859;28;99825;-75
2022/01/31 06:23:17;;;;;;;6.32;1.70;;;;;;;;;;5016511;28;100548;-76
2022/01/31 06:25:47;;;;;;;6.63;1.88;;;;;;;;;;5032494;28;100569;-76
2022/01/31 06:28:14;;;;;;;12.20;2.53;;;;;;;;;;4981238;28;100056;-76
2022/01/31 06:30:41;;;;;;;11.63;2.38;;;;;;;;;;4998179;28;100211;-76
2022/01/31 06:33:08;;;;;;;11.95;3.45;;;;;;;;;;4981492;28;100253;-76
2022/01/31 06:35:34;;;;;;;9.48;1.95;;;;;;;;;;5014219;28;100565;-76
2022/01/31 06:38:02;;;;;;;8.65;1.83;;;;;;;;;;4997127;28;100154;-76
2022/01/31 06:40:28;;;;;;;7.35;2.17;;;;;;;;;;5010173;28;100067;-75
2022/01/31 06:42:55;;;;;;;5.88;2.20;;;;;;;;;;5015111;28;99926;-75
2022/01/31 06:45:22;;;;;;;11.27;2.60;;;;;;;;;;4997225;28;100750;-76
2022/01/31 06:47:49;;;;;;;7.65;1.92;;;;;;;;;;4998128;28;100212;-76
2022/01/31 06:50:16;;;;;;;12.48;2.45;;;;;;;;;;5031712;28;100099;-75
2022/01/31 06:52:43;;;;;;;11.48;2.33;;;;;;;;;;4980698;28;100298;-76
2022/01/31 06:55:19;;;;;;;12.25;2.70;;;;;;;;;;5032485;28;101405;-77
2022/01/31 06:57:46;;;;;;;10.63;2.67;;;;;;;;;;5031570;28;100162;-76
2022/01/31 07:00:13;;;;;;;10.80;3.03;;;;;;;;;;4997208;28;100202;-75
2022/01/31 07:02:40;;;;;;;12.63;2.58;;;;;;;;;;5013566;28;100185;-75
2022/01/31 07:05:07;;;;;;;10.13;2.35;;;;;;;;;;5031755;28;100555;-76
2022/01/31 07:07:34;;;;;;;7.45;2.35;;;;;;;;;;5014657;28;100064;-76
2022/01/31 07:10:02;;;;;;;15.98;2.78;;;;;;;;;;5014601;28;100038;-75
2022/01/31 07:12:32;;;;;;;10.57;2.58;;;;;;;;;;4997500;28;100126;-75
2022/01/31 07:15:00;;;;;;;13.52;2.30;;;;;;;;;;4997833;28;101806;-75
2022/01/31 07:17:27;;;;;;;8.65;2.60;;;;;;;;;;4981395;28;100441;-75
2022/01/31 07:19:55;;;;;;;11.20;2.05;;;;;;;;;;5032262;28;100105;-76
2022/01/31 07:22:28;;;;;;;9.85;2.65;;;;;;;;;;5014109;28;100142;-76
2022/01/31 07:25:03;;;;;;;10.50;3.08;;;;;;;;;;5031517;28;100558;-75
2022/01/31 07:27:30;;;;;;;14.00;2.30;;;;;;;;;;5028245;28;100209;-76
2022/01/31 07:29:57;;;;;;;6.45;1.75;;;;;;;;;;4997660;28;100379;-76
2022/01/31 07:32:24;;;;;;;11.40;2.75;;;;;;;;;;5031230;28;100271;-76
2022/01/31 07:34:53;;;;;;;7.57;2.10;;;;;;;;;;5031516;28;100586;-76
2022/01/31 07:37:20;;;;;;;10.38;2.50;;;;;;;;;;4998227;28;100052;-76
2022/01/31 07:39:47;;;;;;;8.10;2.45;;;;;;;;;;4981391;28;100158;-77
2022/01/31 07:42:14;;;;;;;4.95;1.77;;;;;;;;;;4999935;28;100215;-76
2022/01/31 07:44:46;;;;;;;10.40;2.47;;;;;;;;;;5035146;28;101817;-76
2022/01/31 07:47:13;;;;;;;13.30;2.72;;;;;;;;;;5035385;28;100033;-75
2022/01/31 07:49:40;;;;;;;11.45;2.75;;;;;;;;;;5035300;28;99964;-74
2022/01/31 07:52:07;;;;;;;13.93;3.38;;;;;;;;;;4999358;28;102203;-76
2022/01/31 07:54:34;;;;;;;13.80;2.65;;;;;;;;;;5034549;28;100706;-75
2022/01/31 07:57:01;;;;;;;17.98;2.90;;;;;;;;;;5035040;28;100184;-76
2022/01/31 07:59:48;;;;;;;13.82;2.53;;;;;;;;;;5002489;28;100154;-76
2022/01/31 08:02:15;;;;;;;8.48;2.40;;;;;;;;;;5018851;28;101198;-76
2022/01/31 08:04:42;;;;;;;9.23;2.20;;;;;;;;;;5013573;28;100648;-76
2022/01/31 08:07:09;;;;;;;11.43;2.97;;;;;;;;;;4996185;28;100254;-76
2022/01/31 08:09:36;;;;;;;8.88;2.42;;;;;;;;;;5019969;28;100445;-76
2022/01/31 08:12:04;;;;;;;7.50;2.20;;;;;;;;;;5015640;28;100207;-76
2022/01/31 08:14:31;;;;;;;9.85;2.75;;;;;;;;;;4999246;28;101299;-76
2022/01/31 08:16:58;;;;;;;8.02;2.30;;;;;;;;;;4998429;28;100203;-76
2022/01/31 08:19:26;;;;;;;9.90;2.42;;;;;;;;;;5033391;28;100193;-76
2022/01/31 08:22:07;;;;;;;12.13;2.42;;;;;;;;;;5017477;28;100245;-76
2022/01/31 08:24:34;;;;;;;10.25;2.55;;;;;;;;;;4998849;28;100604;-75
2022/01/31 08:27:01;;;;;;;8.65;2.00;;;;;;;;;;5016782;28;102672;-75
2022/01/31 08:29:35;;;;;;;8.38;1.92;;;;;;;;;;5024499;28;100150;-76
2022/01/31 08:32:08;;;;;;;14.00;2.90;;;;;;;;;;5029779;28;100834;-75
2022/01/31 08:37:21;;;;;;;13.27;2.35;;;;;;;;;;5033608;28;100308;-76
2022/01/31 08:39:48;;;;;;;12.82;2.80;;;;;;;;;;5015990;28;100103;-75
2022/01/31 08:42:15;;;;;;;12.77;2.42;;;;;;;;;;5030744;28;101694;-76
2022/01/31 08:44:42;;;;;;;13.57;2.67;;;;;;;;;;4989631;28;100561;-76
2022/01/31 08:47:08;;;;;;;8.30;2.75;;;;;;;;;;5005872;28;100270;-76
2022/01/31 08:49:36;;;;;;;14.63;3.10;;;;;;;;;;4998443;28;100213;-75
2022/01/31 08:52:04;;;;;;;13.10;2.35;;;;;;;;;;5013385;28;100300;-76
2022/01/31 08:54:31;;;;;;;13.82;2.58;;;;;;;;;;5014010;28;100591;-76
2022/01/31 08:56:57;;;;;;;8.27;1.88;;;;;;;;;;4998371;28;100196;-76
2022/01/31 08:59:26;;;;;;;13.02;3.00;;;;;;;;;;4997832;28;100252;-76
2022/01/31 09:02:03;;;;;;;7.45;2.47;;;;;;;;;;5014200;28;100251;-76
2022/01/31 09:04:47;;;;;;;13.30;2.97;;;;;;;;;;5032314;28;100748;-76
2022/01/31 09:07:16;;;;;;;16.25;2.72;;;;;;;;;;5031324;28;100199;-76
2022/01/31 09:09:43;;;;;;;6.05;2.25;;;;;;;;;;5014103;28;101016;-76
2022/01/31 09:12:11;;;;;;;10.70;2.00;;;;;;;;;;5030280;28;100392;-76
2022/01/31 09:14:38;;;;;;;8.23;2.00;;;;;;;;;;4997426;28;102925;-77
2022/01/31 09:17:10;;;;;;;14.90;2.22;;;;;;;;;;4998625;28;100192;-76
2022/01/31 09:19:37;;;;;;;8.23;2.03;;;;;;;;;;4963206;28;100311;-76
2022/01/31 09:22:04;;;;;;;13.63;2.47;;;;;;;;;;5031820;28;101510;-76
2022/01/31 09:24:37;;;;;;;8.98;2.03;;;;;;;;;;5011743;28;101175;-76
2022/01/31 09:27:07;;;;;;;19.38;2.45;;;;;;;;;;5011648;28;100467;-76
2022/01/31 09:29:34;;;;;;;8.40;1.80;;;;;;;;;;5032046;28;100137;-76
2022/01/31 09:32:03;;;;;;;14.32;2.38;;;;;;;;;;4996825;28;100346;-76
2022/01/31 09:34:31;;;;;;;13.73;2.50;;;;;;;;;;5032214;28;102086;-76
2022/01/31 09:36:58;;;;;;;14.32;2.25;;;;;;;;;;5015128;28;99967;-75
2022/01/31 09:39:25;;;;;;;18.80;2.80;;;;;;;;;;4998734;28;100136;-75
2022/01/31 09:41:55;;;;;;;12.32;2.05;;;;;;;;;;5013997;28;100293;-76
2022/01/31 09:47:08;;;;;;;14.13;2.28;;;;;;;;;;4997573;28;100598;-76
2022/01/31 09:49:35;;;;;;;11.93;2.25;;;;;;;;;;4996441;28;100520;-76
2022/01/31 09:52:02;;;;;;;9.30;2.08;;;;;;;;;;5017754;28;100485;-76
2022/01/31 09:54:29;;;;;;;10.10;2.42;;;;;;;;;;5015860;28;100693;-76
2022/01/31 09:56:56;;;;;;;6.72;2.08;;;;;;;;;;4982853;28;100303;-77
2022/01/31 09:59:23;;;;;;;10.75;2.08;;;;;;;;;;4958287;28;100232;-76
2022/01/31 10:01:55;;;;;;;10.73;3.30;;;;;;;;;;5003411;28;100261;-76
2022/01/31 10:04:29;;;;;;;10.93;2.30;;;;;;;;;;5004130;28;101103;-76
2022/01/31 10:06:57;;;;;;;12.70;1.90;;;;;;;;;;5010554;28;100153;-77
2022/01/31 10:09:29;;;;;;;11.90;2.15;;;;;;;;;;5004911;28;99942;-76
2022/01/31 10:12:06;;;;;;;13.50;2.03;;;;;;;;;;5006566;28;101460;-76
2022/01/31 10:17:33;;;;;;;13.57;2.80;;;;;;;;;;5006710;28;100140;-76
2022/01/31 10:20:30;;;;;;;14.15;2.70;;;;;;;;;;4997643;28;100025;-76
2022/01/31 10:23:11;;;;;;;16.90;2.40;;;;;;;;;;4990243;28;100124;-76
2022/01/31 10:25:38;;;;;;;10.98;2.42;;;;;;;;;;5009275;28;101165;-76
2022/01/31 10:28:16;;;;;;;11.50;2.90;;;;;;;;;;4979944;28;100286;-75
2022/01/31 10:30:44;;;;;;;10.82;2.10;;;;;;;;;;4986423;28;100111;-76
2022/01/31 10:33:12;;;;;;;11.60;2.17;;;;;;;;;;4993750;28;101041;-76
2022/01/31 10:35:41;;;;;;;15.35;2.55;;;;;;;;;;4992098;28;100552;-77
2022/01/31 10:38:15;;;;;;;14.48;2.55;;;;;;;;;;4988333;28;99980;-75
2022/01/31 10:46:32;;;;;;;12.73;2.70;;;;;;;;;;4991226;28;102000;-76
2022/01/31 10:52:01;;;;;;;13.88;2.28;;;;;;;;;;4980510;28;99950;-75
2022/01/31 10:57:16;;;;;;;12.45;2.47;;;;;;;;;;4997068;28;101508;-76
2022/01/31 10:59:45;;;;;;;12.43;2.83;;;;;;;;;;4991701;28;100163;-76
2022/01/31 11:02:25;;;;;;;8.32;2.30;;;;;;;;;;4981561;28;100052;-75
2022/01/31 11:04:53;;;;;;;11.93;2.53;;;;;;;;;;5009446;28;100700;-75
2022/01/31 11:07:22;;;;;;;9.63;2.28;;;;;;;;;;5011247;28;100619;-76
2022/01/31 11:09:50;;;;;;;10.18;2.63;;;;;;;;;;5002037;28;100143;-75
2022/01/31 11:12:19;;;;;;;10.52;2.33;;;;;;;;;;5006471;28;100167;-76
2022/01/31 11:14:47;;;;;;;9.55;2.70;;;;;;;;;;5008424;28;100526;-75
2022/01/31 11:17:16;;;;;;;15.10;3.28;;;;;;;;;;5010580;28;101453;-76
2022/01/31 11:19:48;;;;;;;7.40;2.13;;;;;;;;;;4977379;28;100010;-76
2022/01/31 11:22:18;;;;;;;12.98;2.42;;;;;;;;;;4994137;28;100485;-76
2022/01/31 11:25:06;;;;;;;10.57;2.42;;;;;;;;;;4997728;28;100287;-76
2022/01/31 11:27:33;;;;;;;12.40;2.38;;;;;;;;;;4972950;28;103625;-76
2022/01/31 11:30:00;;;;;;;10.68;2.28;;;;;;;;;;5004126;28;100276;-76
2022/01/31 11:32:29;;;;;;;13.77;2.75;;;;;;;;;;4973485;28;100542;-76
2022/01/31 11:34:56;;;;;;;10.77;2.30;;;;;;;;;;4989487;28;100165;-75
2022/01/31 11:37:25;;;;;;;17.05;2.55;;;;;;;;;;5000771;28;101259;-75
2022/01/31 11:39:58;;;;;;;10.77;2.55;;;;;;;;;;5010406;28;100147;-76
2022/01/31 11:42:25;;;;;;;7.68;2.20;;;;;;;;;;4992594;28;100191;-76
2022/01/31 11:45:04;;;;;;;15.82;2.40;;;;;;;;;;5007537;28;100232;-76
2022/01/31 11:47:32;;;;;;;13.98;2.47;;;;;;;;;;5002502;28;101771;-76
2022/01/31 11:50:01;;;;;;;12.95;2.72;;;;;;;;;;4979205;28;100153;-73
2022/01/31 11:52:33;;;;;;;10.20;2.58;;;;;;;;;;4996631;28;100557;-76
2022/01/31 11:55:03;;;;;;;17.17;2.67;;;;;;;;;;5001460;28;100849;-76
2022/01/31 11:57:31;;;;;;;7.47;2.05;;;;;;;;;;4975810;28;100746;-77
2022/01/31 12:00:07;;;;;;;16.02;3.10;;;;;;;;;;4998038;28;102461;-75
2022/01/31 12:02:50;;;;;;;10.15;2.95;;;;;;;;;;5009051;28;100196;-76
2022/01/31 12:05:18;;;;;;;;;;;;;;;;;;4998030;28;100675;-75
2022/01/31 12:08:04;;;;;;;15.20;3.22;;;;;;;;;;4990695;28;100666;-75
2022/01/31 12:10:41;;;;;;;10.38;2.72;;;;;;;;;;5008902;28;100194;-76
2022/01/31 12:13:35;;;;;;;12.05;3.10;;;;;;;;;;5008525;28;100117;-76
2022/01/31 12:16:22;;;;;;;11.80;2.65;;;;;;;;;;5009860;28;100184;-75
2022/01/31 12:18:59;;;;;;;11.23;2.20;;;;;;;;;;5008812;28;101202;-74
2022/01/31 12:24:32;;;;;;;12.65;2.38;;;;;;;;;;5009839;28;100275;-75
2022/01/31 12:27:16;;;;;;;11.05;2.30;;;;;;;;;;5009912;28;100328;-75
2022/01/31 12:29:51;;;;;;;10.45;2.60;;;;;;;;;;5003503;28;100662;-75
2022/01/31 12:32:22;;;;;;;11.98;2.72;;;;;;;;;;4983556;28;102974;-75
2022/01/31 12:34:58;;;;;;;11.43;3.78;;;;;;;;;;4996235;28;100175;-76
2022/01/31 12:37:34;;;;;;;8.55;2.65;;;;;;;;;;5009674;28;101896;-74
2022/01/31 12:40:15;;;;;;;14.38;3.10;;;;;;;;;;4993336;28;100814;-74
2022/01/31 12:45:37;;;;;;;20.73;3.17;;;;;;;;;;5012590;28;100326;-74
2022/01/31 12:48:23;;;;;;;13.70;2.50;;;;;;;;;;5013657;28;100330;-74
2022/01/31 12:50:56;;;;;;;11.73;2.38;;;;;;;;;;4997566;28;100604;-74
2022/01/31 12:53:23;;;;;;;9.52;2.85;;;;;;;;;;4993831;28;100177;-76
2022/01/31 12:56:00;;;;;;;14.75;3.10;;;;;;;;;;4993810;28;99925;-74
2022/01/31 12:58:41;;;;;;;15.73;3.15;;;;;;;;;;5006742;28;101389;-74
2022/01/31 13:01:11;;;;;;;13.02;2.97;;;;;;;;;;5033407;28;100567;-75
2022/01/31 13:03:40;;;;;;;12.40;2.78;;;;;;;;;;4999902;28;100052;-75
2022/01/31 13:06:33;;;;;;;11.90;2.60;;;;;;;;;;4983075;28;100143;-74
2022/01/31 13:09:24;;;;;;;12.70;2.70;;;;;;;;;;5013338;28;100158;-75
2022/01/31 13:11:51;;;;;;;9.15;2.33;;;;;;;;;;4989171;28;100790;-75
2022/01/31 13:14:24;;;;;;;11.43;2.45;;;;;;;;;;5012112;28;100600;-75
2022/01/31 13:17:18;;;;;;;10.75;2.50;;;;;;;;;;5001889;28;100174;-75
2022/01/31 13:19:53;;;;;;;9.00;1.92;;;;;;;;;;5014412;28;100371;-75
2022/01/31 13:22:40;;;;;;;12.07;2.35;;;;;;;;;;5015435;28;100796;-74
2022/01/31 13:25:08;;;;;;;11.32;2.20;;;;;;;;;;4986501;28;100248;-75
2022/01/31 13:27:56;;;;;;;11.70;2.35;;;;;;;;;;4989264;28;100118;-75
2022/01/31 13:30:24;;;;;;;9.80;2.72;;;;;;;;;;4987064;28;101470;-75
2022/01/31 13:33:06;;;;;;;16.00;2.50;;;;;;;;;;4995150;28;101214;-75
2022/01/31 13:35:37;;;;;;;14.55;2.95;;;;;;;;;;4979382;28;100572;-75
2022/01/31 13:38:10;;;;;;;12.13;3.47;;;;;;;;;;4994318;28;100269;-75
2022/01/31 13:40:48;;;;;;;12.88;2.15;;;;;;;;;;5012117;28;100296;-75
2022/01/31 13:43:25;;;;;;;13.75;2.90;;;;;;;;;;5011483;28;100533;-75
2022/01/31 13:48:38;;;;;;;12.05;2.53;;;;;;;;;;5013252;28;100318;-75
2022/01/31 13:51:12;;;;;;;11.65;2.80;;;;;;;;;;5018639;28;103024;-74
2022/01/31 13:53:40;;;;;;;11.93;2.95;;;;;;;;;;4994966;28;100665;-75
2022/01/31 13:56:11;;;;;;;13.02;3.03;;;;;;;;;;5015434;28;99997;-75
2022/01/31 13:58:40;;;;;;;14.23;3.00;;;;;;;;;;4987015;28;100300;-74
2022/01/31 14:01:18;;;;;;;14.73;3.08;;;;;;;;;;4994540;28;100345;-74
2022/01/31 14:03:45;;;;;;;16.65;3.38;;;;;;;;;;5000117;28;100682;-75
2022/01/31 14:06:12;;;;;;;14.52;2.70;;;;;;;;;;5008286;28;100335;-75
2022/01/31 14:08:44;;;;;;;8.85;2.70;;;;;;;;;;5007869;28;100497;-75
2022/01/31 14:11:16;;;;;;;11.35;3.70;;;;;;;;;;4980673;28;100830;-76
2022/01/31 14:13:54;;;;;;;10.18;2.92;;;;;;;;;;5031606;28;100742;-74
2022/01/31 14:16:24;;;;;;;12.65;3.75;;;;;;;;;;4989292;28;100328;-76
2022/01/31 14:18:52;;;;;;;11.52;3.42;;;;;;;;;;4997584;28;101857;-75
2022/01/31 14:21:20;;;;;;;8.30;2.83;;;;;;;;;;5004456;28;100456;-75
2022/01/31 14:23:50;;;;;;;11.25;3.10;;;;;;;;;;4995107;28;100689;-75
2022/01/31 14:26:36;;;;;;;7.53;3.00;;;;;;;;;;4978026;28;100085;-75
2022/01/31 14:29:04;;;;;;;14.07;3.47;;;;;;;;;;5013805;28;100131;-74
2022/01/31 14:31:33;;;;;;;9.48;2.85;;;;;;;;;;5013800;28;100148;-75
2022/01/31 14:34:11;;;;;;;11.60;2.70;;;;;;;;;;4996269;28;104374;-75
2022/01/31 14:36:39;;;;;;;14.95;2.85;;;;;;;;;;4992315;28;100130;-75
2022/01/31 14:47:18;;;;;;;11.32;3.45;;;;;;;;;;5011531;28;100126;-75
2022/01/31 14:49:50;;;;;;;11.15;2.65;;;;;;;;;;5003698;28;100083;-75
2022/01/31 14:52:20;;;;;;;16.52;3.05;;;;;;;;;;4994592;28;100282;-75
2022/01/31 14:54:59;;;;;;;11.00;2.45;;;;;;;;;;5010911;28;100645;-75
2022/01/31 14:57:26;;;;;;;14.77;3.53;;;;;;;;;;4996282;28;100052;-75
2022/01/31 14:59:53;;;;;;;8.52;2.63;;;;;;;;;;5011556;28;100067;-73
2022/01/31 15:02:20;;;;;;;16.55;3.42;;;;;;;;;;5012702;28;100523;-73
2022/01/31 15:05:09;;;;;;;15.32;3.03;;;;;;;;;;5026463;28;100854;-75
2022/01/31 15:07:36;;;;;;;10.30;2.88;;;;;;;;;;5016058;28;100187;-75
2022/01/31 15:10:04;;;;;;;14.20;3.63;;;;;;;;;;5010659;28;100113;-73
2022/01/31 15:12:32;;;;;;;12.70;3.13;;;;;;;;;;4992958;28;100710;-76
2022/01/31 15:14:59;;;;;;;11.00;3.08;;;;;;;;;;4996081;28;100665;-74
2022/01/31 15:17:26;;;;;;;7.75;3.10;;;;;;;;;;4976820;28;100111;-76
2022/01/31 15:19:53;;;;;;;9.88;2.88;;;;;;;;;;4992152;28;100217;-74